Time;durP1;ratioP1;P1;durP2;ratioP2;P2;SDS_P1;SDS_P2;PMS_P1;PMS_P2;Temp;Humidity;BMP_temperature;BMP_pressure;BME280_temperature;BME280_humidity;BME280_pressure;Samples;Min_cycle;Max_cycle;Signal;HPM_P1;HPM_P2
2023/12/20 00:01:03;;;;;;;0.47;0.47;;;7.00;99.90;;;;;;4409222;32;20065;-58
2023/12/20 00:03:28;;;;;;;0.62;0.60;;;7.00;99.90;;;;;;4407446;32;20950;-59
2023/12/20 00:05:53;;;;;;;0.40;0.40;;;7.00;99.90;;;;;;4407929;32;20094;-59
2023/12/20 00:08:19;;;;;;;0.30;0.30;;;7.00;99.90;;;;;;4406473;32;20034;-60
2023/12/20 00:10:44;;;;;;;0.40;0.40;;;7.00;99.90;;;;;;4407662;32;20082;-61
2023/12/20 00:13:10;;;;;;;0.47;0.47;;;7.00;99.90;;;;;;4406711;32;20066;-59
2023/12/20 00:15:36;;;;;;;1.12;0.80;;;7.00;99.90;;;;;;4407553;32;20141;-60
2023/12/20 00:18:01;;;;;;;0.32;0.32;;;6.90;99.90;;;;;;4409423;32;20074;-61
2023/12/20 00:20:28;;;;;;;0.35;0.35;;;6.90;99.90;;;;;;4406948;32;20082;-60
2023/12/20 00:22:57;;;;;;;0.30;0.30;;;6.90;99.90;;;;;;4392920;32;20098;-60
2023/12/20 00:25:23;;;;;;;0.30;0.30;;;6.90;99.90;;;;;;4389825;32;20086;-60
2023/12/20 00:27:48;;;;;;;0.30;0.30;;;6.90;99.90;;;;;;4406350;32;20082;-59
2023/12/20 00:30:14;;;;;;;0.30;0.30;;;6.90;99.90;;;;;;4407876;32;20038;-60
2023/12/20 00:32:41;;;;;;;0.30;0.30;;;6.90;99.90;;;;;;4405509;32;20085;-61
2023/12/20 00:35:07;;;;;;;0.30;0.30;;;7.00;99.90;;;;;;4405245;32;20059;-60
2023/12/20 00:37:32;;;;;;;0.30;0.30;;;7.00;99.90;;;;;;4406698;32;20086;-60
2023/12/20 00:39:57;;;;;;;0.30;0.30;;;7.00;99.90;;;;;;4407330;32;20039;-60
2023/12/20 00:42:23;;;;;;;0.20;0.20;;;7.00;99.90;;;;;;4401719;32;20077;-60
2023/12/20 00:44:50;;;;;;;0.45;0.40;;;7.00;99.90;;;;;;4405668;32;20078;-60
2023/12/20 00:47:16;;;;;;;0.30;0.30;;;7.00;99.90;;;;;;4392982;32;20106;-59
2023/12/20 00:49:41;;;;;;;0.30;0.30;;;6.90;99.90;;;;;;4407645;32;20062;-60
2023/12/20 00:52:07;;;;;;;0.52;0.52;;;7.00;99.90;;;;;;4407699;32;20062;-60
2023/12/20 00:54:32;;;;;;;0.22;0.22;;;6.90;99.90;;;;;;4407043;32;20042;-58
2023/12/20 00:56:58;;;;;;;0.20;0.20;;;7.00;99.90;;;;;;4406512;32;20071;-60
2023/12/20 00:59:23;;;;;;;0.30;0.30;;;7.00;99.90;;;;;;4408826;32;20074;-60
2023/12/20 01:01:49;;;;;;;0.40;0.40;;;6.90;99.90;;;;;;4411769;32;20063;-59
2023/12/20 01:04:14;;;;;;;0.35;0.35;;;6.90;99.90;;;;;;4395630;32;20075;-61
2023/12/20 01:06:39;;;;;;;0.40;0.40;;;6.90;99.90;;;;;;4406147;32;20074;-61
2023/12/20 01:09:05;;;;;;;0.30;0.30;;;6.90;99.90;;;;;;4408201;32;20078;-60
2023/12/20 01:11:30;;;;;;;0.40;0.40;;;7.00;99.90;;;;;;4396438;32;20126;-62
2023/12/20 01:13:56;;;;;;;0.35;0.35;;;7.00;99.90;;;;;;4386858;32;20101;-60
2023/12/20 01:16:21;;;;;;;0.30;0.30;;;7.00;99.90;;;;;;4387630;32;20069;-61
2023/12/20 01:18:47;;;;;;;0.30;0.30;;;7.00;99.90;;;;;;4388469;32;20073;-62
2023/12/20 01:21:12;;;;;;;0.65;0.60;;;7.00;99.90;;;;;;4389571;32;20415;-59
2023/12/20 01:23:38;;;;;;;0.68;0.45;;;7.00;99.90;;;;;;4374604;32;20074;-61
2023/12/20 01:26:05;;;;;;;0.40;0.40;;;7.00;99.90;;;;;;4386237;32;20167;-61
2023/12/20 01:28:30;;;;;;;0.30;0.30;;;7.00;99.90;;;;;;4388323;32;20074;-60
2023/12/20 01:30:57;;;;;;;2.50;0.50;;;7.00;99.90;;;;;;4374862;32;20552;-60
2023/12/20 01:33:22;;;;;;;0.30;0.30;;;7.00;99.90;;;;;;4388978;32;20062;-61
2023/12/20 01:35:47;;;;;;;0.45;0.45;;;7.00;99.90;;;;;;4387544;32;20075;-60
2023/12/20 01:38:13;;;;;;;0.30;0.30;;;7.00;99.90;;;;;;4390644;32;20078;-60
2023/12/20 01:40:38;;;;;;;0.40;0.40;;;7.00;99.90;;;;;;4390733;32;20081;-61
2023/12/20 01:43:08;;;;;;;0.30;0.30;;;7.00;99.90;;;;;;4389668;32;20093;-61
2023/12/20 01:45:34;;;;;;;0.43;0.43;;;7.00;99.90;;;;;;4390175;32;20480;-61
2023/12/20 01:48:00;;;;;;;0.20;0.20;;;7.00;99.90;;;;;;4389944;32;20760;-61
2023/12/20 01:50:26;;;;;;;0.40;0.40;;;7.00;99.90;;;;;;4363521;32;20090;-61
2023/12/20 01:52:55;;;;;;;0.30;0.30;;;7.00;99.90;;;;;;4374202;32;20561;-59
2023/12/20 01:55:21;;;;;;;0.30;0.30;;;7.00;99.90;;;;;;4391434;32;20073;-61
2023/12/20 01:57:47;;;;;;;0.68;0.68;;;7.00;99.90;;;;;;4388703;32;20141;-61
2023/12/20 02:00:14;;;;;;;0.30;0.30;;;7.00;99.90;;;;;;4389674;32;20129;-61
2023/12/20 02:02:40;;;;;;;0.40;0.40;;;7.00;99.90;;;;;;4388366;32;20145;-61
2023/12/20 02:05:06;;;;;;;0.40;0.40;;;7.10;99.90;;;;;;4389111;32;21350;-61
2023/12/20 02:07:32;;;;;;;0.30;0.30;;;7.00;99.90;;;;;;4389883;32;20091;-59
2023/12/20 02:09:57;;;;;;;0.47;0.47;;;7.00;99.90;;;;;;4389460;32;20109;-60
2023/12/20 02:12:23;;;;;;;7.62;1.10;;;7.00;99.90;;;;;;4389326;32;20116;-61
2023/12/20 02:14:49;;;;;;;0.43;0.43;;;7.00;99.90;;;;;;4390832;32;20151;-61
2023/12/20 02:17:15;;;;;;;0.40;0.40;;;7.00;99.90;;;;;;4389686;32;20105;-61
2023/12/20 02:19:40;;;;;;;0.40;0.40;;;7.00;99.90;;;;;;4389904;32;20774;-61
2023/12/20 02:22:11;;;;;;;0.30;0.30;;;7.00;99.90;;;;;;4408000;32;20106;-60
2023/12/20 02:24:37;;;;;;;0.40;0.40;;;7.00;99.90;;;;;;4409121;32;20059;-59
2023/12/20 02:27:04;;;;;;;0.30;0.30;;;6.90;99.90;;;;;;4398770;32;20070;-60
2023/12/20 02:29:30;;;;;;;0.30;0.30;;;7.00;99.90;;;;;;4408049;32;20098;-61
2023/12/20 02:31:56;;;;;;;0.20;0.20;;;7.10;99.90;;;;;;4391031;32;20078;-61
2023/12/20 02:34:22;;;;;;;1.30;0.50;;;7.10;99.90;;;;;;4389808;32;20086;-61
2023/12/20 02:36:48;;;;;;;0.50;0.50;;;7.10;99.90;;;;;;4388079;32;20435;-61
2023/12/20 02:39:14;;;;;;;0.40;0.40;;;7.10;99.90;;;;;;4387797;32;20082;-61
2023/12/20 02:41:39;;;;;;;0.30;0.30;;;7.10;99.90;;;;;;4375161;32;20085;-61
2023/12/20 02:44:05;;;;;;;0.30;0.30;;;7.10;99.90;;;;;;4373914;32;20077;-60
2023/12/20 02:46:30;;;;;;;0.32;0.32;;;7.10;99.90;;;;;;4374138;32;20078;-61
2023/12/20 02:48:56;;;;;;;0.40;0.40;;;7.20;99.90;;;;;;4387441;32;20129;-61
2023/12/20 02:51:21;;;;;;;0.43;0.43;;;7.10;99.90;;;;;;4387174;32;20073;-60
2023/12/20 02:53:47;;;;;;;0.30;0.30;;;7.20;99.90;;;;;;4385812;32;20238;-61
2023/12/20 02:56:14;;;;;;;0.50;0.50;;;7.20;99.90;;;;;;4387614;32;20067;-59
2023/12/20 02:58:39;;;;;;;0.50;0.50;;;7.20;99.90;;;;;;4390917;32;20094;-61
2023/12/20 03:01:05;;;;;;;0.60;0.60;;;7.20;99.90;;;;;;4386302;32;20073;-61
2023/12/20 03:03:31;;;;;;;0.65;0.43;;;7.30;99.90;;;;;;4389003;32;20113;-59
2023/12/20 03:05:57;;;;;;;0.62;0.55;;;7.20;99.90;;;;;;4390068;32;20367;-62
2023/12/20 03:08:22;;;;;;;0.40;0.40;;;7.20;99.90;;;;;;4386798;32;20489;-61
2023/12/20 03:10:48;;;;;;;0.45;0.45;;;7.20;99.90;;;;;;4389315;32;20081;-61
2023/12/20 03:13:13;;;;;;;0.30;0.30;;;7.20;99.90;;;;;;4389632;32;20161;-60
2023/12/20 03:15:39;;;;;;;0.60;0.60;;;7.20;99.90;;;;;;4387435;32;20150;-61
2023/12/20 03:18:05;;;;;;;0.50;0.50;;;7.20;99.90;;;;;;4389078;32;20126;-62
2023/12/20 03:20:34;;;;;;;0.40;0.40;;;7.10;99.90;;;;;;4387364;32;20112;-60
2023/12/20 03:22:59;;;;;;;0.30;0.30;;;7.10;99.90;;;;;;4388980;32;20065;-61
2023/12/20 03:25:25;;;;;;;0.30;0.30;;;7.10;99.90;;;;;;4387729;32;20086;-61
2023/12/20 03:27:50;;;;;;;0.40;0.40;;;7.10;99.90;;;;;;4391002;32;20077;-62
2023/12/20 03:30:16;;;;;;;0.40;0.40;;;7.10;99.90;;;;;;4386491;32;20082;-62
2023/12/20 03:32:41;;;;;;;0.40;0.40;;;7.10;99.90;;;;;;4385359;32;20521;-61
2023/12/20 03:35:07;;;;;;;0.55;0.50;;;7.10;99.90;;;;;;4386624;32;21134;-61
2023/12/20 03:37:32;;;;;;;0.40;0.40;;;7.10;99.90;;;;;;4388522;32;20082;-60
2023/12/20 03:39:58;;;;;;;0.62;0.62;;;7.10;99.90;;;;;;4390230;32;20074;-59
2023/12/20 03:42:23;;;;;;;0.45;0.43;;;7.00;99.90;;;;;;4409230;32;20074;-61
2023/12/20 03:44:48;;;;;;;0.40;0.40;;;7.00;99.90;;;;;;4409291;32;20066;-61
2023/12/20 03:47:14;;;;;;;0.40;0.40;;;7.00;99.90;;;;;;4407524;32;20058;-59
2023/12/20 03:49:39;;;;;;;0.40;0.40;;;7.10;99.90;;;;;;4408835;32;20149;-60
2023/12/20 03:52:05;;;;;;;0.37;0.37;;;7.10;99.90;;;;;;4371791;32;20099;-60
2023/12/20 03:54:30;;;;;;;0.30;0.30;;;7.10;99.90;;;;;;4387411;32;21013;-61
2023/12/20 03:56:56;;;;;;;0.85;0.70;;;7.10;99.90;;;;;;4387337;32;20082;-62
2023/12/20 03:59:22;;;;;;;0.40;0.40;;;7.00;99.90;;;;;;4385974;32;20145;-61
2023/12/20 04:01:47;;;;;;;0.30;0.30;;;7.10;99.90;;;;;;4392228;32;20027;-60
2023/12/20 04:04:13;;;;;;;0.30;0.30;;;7.10;99.90;;;;;;4409453;32;20082;-61
2023/12/20 04:06:39;;;;;;;0.80;0.65;;;7.00;99.90;;;;;;4383499;32;20072;-59
2023/12/20 04:09:05;;;;;;;0.77;0.77;;;7.10;99.90;;;;;;4408742;32;20070;-60
2023/12/20 04:11:30;;;;;;;0.30;0.30;;;7.00;99.90;;;;;;4408956;32;20050;-59
2023/12/20 04:13:56;;;;;;;0.32;0.32;;;7.00;99.90;;;;;;4406615;32;20063;-60
2023/12/20 04:16:21;;;;;;;0.35;0.35;;;7.00;99.90;;;;;;4406519;32;20058;-60
2023/12/20 04:18:47;;;;;;;35.92;0.68;;;7.00;99.90;;;;;;4407466;32;20196;-61
2023/12/20 04:21:12;;;;;;;0.95;0.95;;;7.00;99.90;;;;;;4409256;32;20099;-59
2023/12/20 04:23:37;;;;;;;0.47;0.47;;;7.00;99.90;;;;;;4391621;32;20079;-61
2023/12/20 04:26:03;;;;;;;0.40;0.40;;;6.90;99.90;;;;;;4407039;32;20066;-61
2023/12/20 04:28:30;;;;;;;0.30;0.30;;;6.90;99.90;;;;;;4406670;32;20026;-60
2023/12/20 04:30:56;;;;;;;0.75;0.75;;;6.90;99.90;;;;;;4406199;32;20066;-61
2023/12/20 04:33:21;;;;;;;0.40;0.40;;;6.80;99.90;;;;;;4410357;32;20046;-60
2023/12/20 04:35:47;;;;;;;5.22;1.10;;;6.70;99.90;;;;;;4408867;32;20063;-61
2023/12/20 04:38:12;;;;;;;0.37;0.37;;;6.70;99.90;;;;;;4408021;32;20062;-61
2023/12/20 04:40:40;;;;;;;0.30;0.30;;;6.70;99.90;;;;;;4408803;32;20070;-61
2023/12/20 04:43:05;;;;;;;0.30;0.30;;;6.60;99.90;;;;;;4406216;32;20059;-61
2023/12/20 04:45:31;;;;;;;0.30;0.30;;;6.60;99.90;;;;;;4407395;32;20227;-61
2023/12/20 04:47:56;;;;;;;0.30;0.30;;;6.60;99.90;;;;;;4406821;32;20054;-60
2023/12/20 04:50:22;;;;;;;0.40;0.40;;;6.50;99.90;;;;;;4407273;32;20063;-61
2023/12/20 04:52:47;;;;;;;1.77;1.40;;;6.50;99.90;;;;;;4410716;32;20087;-61
2023/12/20 04:55:13;;;;;;;0.40;0.40;;;6.40;99.90;;;;;;4406615;32;20114;-61
2023/12/20 04:57:39;;;;;;;0.37;0.37;;;6.40;99.90;;;;;;4408151;32;20158;-60
2023/12/20 05:00:05;;;;;;;0.30;0.30;;;6.30;99.90;;;;;;4404308;32;20074;-61
2023/12/20 05:02:30;;;;;;;0.40;0.40;;;6.30;99.90;;;;;;4386894;32;20095;-61
2023/12/20 05:04:56;;;;;;;0.30;0.30;;;6.30;99.90;;;;;;4372831;32;20062;-62
2023/12/20 05:07:21;;;;;;;0.45;0.45;;;6.30;99.90;;;;;;4387398;32;20512;-61
2023/12/20 05:09:47;;;;;;;6.50;2.58;;;6.20;99.90;;;;;;4387151;32;20063;-61
2023/12/20 05:12:12;;;;;;;0.50;0.50;;;6.20;99.90;;;;;;4388049;32;20070;-61
2023/12/20 05:14:38;;;;;;;0.32;0.32;;;6.30;99.90;;;;;;4390297;32;20116;-61
2023/12/20 05:17:04;;;;;;;0.30;0.30;;;6.30;99.90;;;;;;4389573;32;20631;-60
2023/12/20 05:19:29;;;;;;;0.30;0.30;;;6.20;99.90;;;;;;4388328;32;20085;-61
2023/12/20 05:21:54;;;;;;;0.32;0.32;;;6.20;99.90;;;;;;4385171;32;20124;-61
2023/12/20 05:24:20;;;;;;;0.40;0.40;;;6.20;99.90;;;;;;4390809;32;20087;-61
2023/12/20 05:26:46;;;;;;;18.87;4.55;;;6.20;99.90;;;;;;4391019;32;21581;-60
2023/12/20 05:29:11;;;;;;;3.53;0.82;;;6.20;99.90;;;;;;4388293;32;20082;-61
2023/12/20 05:31:37;;;;;;;0.30;0.30;;;6.10;99.90;;;;;;4389321;32;20125;-61
2023/12/20 05:34:02;;;;;;;5.93;1.40;;;6.00;99.90;;;;;;4390432;32;20066;-60
2023/12/20 05:36:28;;;;;;;0.28;0.28;;;6.00;99.90;;;;;;4391164;32;20090;-61
2023/12/20 05:38:53;;;;;;;0.40;0.40;;;6.00;99.90;;;;;;4390408;32;20093;-61
2023/12/20 05:41:19;;;;;;;0.82;0.82;;;6.00;99.90;;;;;;4389753;32;20078;-61
2023/12/20 05:43:44;;;;;;;0.30;0.30;;;5.90;99.90;;;;;;4391436;32;20099;-61
2023/12/20 05:46:12;;;;;;;0.25;0.25;;;5.80;99.90;;;;;;4388933;32;20070;-61
2023/12/20 05:48:37;;;;;;;0.30;0.30;;;5.80;99.90;;;;;;4374326;32;20229;-59
2023/12/20 05:51:03;;;;;;;0.55;0.55;;;5.80;99.90;;;;;;4387784;32;20179;-61
2023/12/20 05:53:28;;;;;;;1.75;0.80;;;5.80;99.90;;;;;;4387281;32;20066;-60
2023/12/20 05:55:54;;;;;;;0.30;0.30;;;5.80;99.90;;;;;;4389073;32;20082;-61
2023/12/20 05:58:19;;;;;;;0.62;0.62;;;5.80;99.90;;;;;;4386516;32;20098;-61
2023/12/20 06:00:45;;;;;;;1.00;1.00;;;5.80;99.90;;;;;;4389142;32;20124;-61
2023/12/20 06:03:10;;;;;;;0.70;0.52;;;5.80;99.90;;;;;;4389412;32;20529;-61
2023/12/20 06:05:36;;;;;;;0.30;0.30;;;5.70;99.90;;;;;;4385501;32;20411;-61
2023/12/20 06:08:02;;;;;;;0.35;0.35;;;5.70;99.90;;;;;;4380981;32;20077;-61
2023/12/20 06:10:28;;;;;;;2.00;0.73;;;5.70;99.90;;;;;;4382129;32;20051;-61
2023/12/20 06:12:54;;;;;;;0.30;0.30;;;5.70;99.90;;;;;;4391899;32;20091;-61
2023/12/20 06:15:19;;;;;;;0.30;0.30;;;5.70;99.90;;;;;;4405530;32;20057;-60
2023/12/20 06:17:46;;;;;;;0.77;0.77;;;5.70;99.90;;;;;;4410427;32;20057;-61
2023/12/20 06:20:12;;;;;;;0.35;0.35;;;5.70;99.90;;;;;;4407017;32;20089;-61
2023/12/20 06:22:38;;;;;;;0.40;0.40;;;5.60;99.90;;;;;;4390628;32;20066;-62
2023/12/20 06:25:04;;;;;;;0.37;0.37;;;5.70;99.90;;;;;;4396374;32;20062;-60
2023/12/20 06:27:32;;;;;;;0.30;0.30;;;5.60;99.90;;;;;;4383705;32;20770;-60
2023/12/20 06:29:59;;;;;;;2.20;0.68;;;5.60;99.90;;;;;;4408148;32;20073;-61
2023/12/20 06:32:24;;;;;;;0.30;0.30;;;5.60;99.90;;;;;;4394443;32;20117;-61
2023/12/20 06:34:50;;;;;;;0.30;0.30;;;5.50;99.90;;;;;;4408522;32;20082;-61
2023/12/20 06:37:16;;;;;;;0.57;0.57;;;5.50;99.90;;;;;;4409071;32;20074;-61
2023/12/20 06:39:41;;;;;;;7.22;0.98;;;5.50;99.90;;;;;;4397092;32;20043;-62
2023/12/20 06:42:07;;;;;;;0.47;0.47;;;5.50;99.90;;;;;;4407430;32;20219;-63
2023/12/20 06:44:32;;;;;;;0.50;0.50;;;5.60;99.90;;;;;;4407551;32;20103;-61
2023/12/20 06:46:58;;;;;;;0.68;0.68;;;5.60;99.90;;;;;;4407869;32;20075;-62
2023/12/20 06:49:23;;;;;;;0.43;0.43;;;5.60;99.90;;;;;;4404750;32;20069;-62
2023/12/20 06:51:49;;;;;;;4.57;1.95;;;5.60;99.90;;;;;;4400245;32;20146;-62
2023/12/20 06:54:14;;;;;;;0.20;0.20;;;5.60;99.90;;;;;;4398364;32;20077;-62
2023/12/20 06:56:41;;;;;;;3.00;1.48;;;5.60;99.90;;;;;;4399675;32;20066;-62
2023/12/20 06:59:06;;;;;;;0.20;0.20;;;5.60;99.90;;;;;;4398018;32;20114;-62
2023/12/20 07:01:35;;;;;;;0.90;0.62;;;5.50;99.90;;;;;;4396915;32;20090;-61
2023/12/20 07:04:01;;;;;;;0.62;0.62;;;5.50;99.90;;;;;;4394150;32;20139;-62
2023/12/20 07:06:26;;;;;;;0.30;0.30;;;5.50;99.90;;;;;;4384273;32;20111;-63
2023/12/20 07:08:52;;;;;;;0.25;0.25;;;5.50;99.90;;;;;;4397711;32;21363;-62
2023/12/20 07:11:18;;;;;;;0.35;0.35;;;5.60;99.90;;;;;;4395874;27;20134;-78
2023/12/20 07:13:43;;;;;;;0.30;0.30;;;5.50;99.90;;;;;;4363386;32;20961;-79
2023/12/20 07:16:09;;;;;;;0.30;0.30;;;5.60;99.90;;;;;;4362733;32;20086;-80
2023/12/20 07:18:36;;;;;;;7.45;1.10;;;5.60;99.90;;;;;;4359385;32;20366;-79
2023/12/20 07:21:02;;;;;;;0.30;0.30;;;5.60;99.90;;;;;;4361949;32;20165;-79
2023/12/20 07:23:30;;;;;;;1.37;0.85;;;5.60;99.90;;;;;;4358946;32;20078;-79
2023/12/20 07:25:56;;;;;;;0.40;0.40;;;5.50;99.90;;;;;;4364081;32;20166;-79
2023/12/20 07:28:21;;;;;;;0.37;0.37;;;5.60;99.90;;;;;;4357106;32;20090;-80
2023/12/20 07:30:47;;;;;;;1.12;1.10;;;5.60;99.90;;;;;;4363518;32;20090;-81
2023/12/20 07:33:13;;;;;;;0.65;0.57;;;5.50;99.90;;;;;;4365079;32;20082;-79
2023/12/20 07:35:40;;;;;;;0.40;0.40;;;5.60;99.90;;;;;;4359819;32;20510;-81
2023/12/20 07:38:06;;;;;;;0.20;0.20;;;5.60;99.90;;;;;;4354076;32;20123;-79
2023/12/20 07:40:31;;;;;;;0.30;0.30;;;5.70;99.90;;;;;;4347174;32;20659;-80
2023/12/20 07:42:58;;;;;;;0.40;0.40;;;5.70;99.90;;;;;;4356938;32;20094;-80
2023/12/20 07:45:23;;;;;;;0.50;0.50;;;5.70;99.90;;;;;;4350505;32;20123;-80
2023/12/20 07:47:50;;;;;;;0.30;0.30;;;5.70;99.90;;;;;;4347456;32;20582;-78
2023/12/20 07:50:15;;;;;;;5.05;0.75;;;5.70;99.90;;;;;;4353329;32;20466;-79
2023/12/20 07:52:41;;;;;;;0.35;0.35;;;5.70;99.90;;;;;;4355759;32;20069;-78
2023/12/20 07:55:07;;;;;;;0.73;0.73;;;5.80;99.90;;;;;;4360807;32;20142;-80
2023/12/20 07:57:33;;;;;;;6.65;2.65;;;5.80;99.90;;;;;;4363343;32;20094;-81
2023/12/20 07:59:58;;;;;;;0.57;0.57;;;5.70;99.90;;;;;;4363983;32;21016;-80
2023/12/20 08:02:24;;;;;;;1.73;1.42;;;5.80;99.90;;;;;;4355851;32;20313;-80
2023/12/20 08:04:50;;;;;;;0.70;0.70;;;5.70;99.90;;;;;;4358512;32;20073;-80
2023/12/20 08:07:16;;;;;;;0.47;0.47;;;5.80;99.90;;;;;;4358291;32;20090;-80
2023/12/20 08:09:43;;;;;;;0.30;0.30;;;5.80;99.90;;;;;;4358268;32;20114;-81
2023/12/20 08:12:09;;;;;;;0.40;0.40;;;5.80;99.90;;;;;;4356070;32;20358;-80
2023/12/20 08:14:35;;;;;;;0.30;0.30;;;5.90;99.90;;;;;;4362415;32;20082;-80
2023/12/20 08:17:00;;;;;;;0.30;0.30;;;5.90;99.90;;;;;;4361360;32;20090;-80
2023/12/20 08:19:28;;;;;;;0.50;0.50;;;5.90;99.90;;;;;;4357370;32;20090;-80
2023/12/20 08:21:53;;;;;;;0.30;0.30;;;5.90;99.90;;;;;;4357916;32;20106;-81
2023/12/20 08:24:19;;;;;;;0.40;0.40;;;5.90;99.90;;;;;;4362703;32;20094;-81
2023/12/20 08:26:46;;;;;;;0.30;0.30;;;5.90;99.90;;;;;;4356868;32;20754;-80
2023/12/20 08:29:13;;;;;;;0.40;0.40;;;5.90;99.90;;;;;;4358171;32;20136;-80
2023/12/20 08:31:39;;;;;;;0.55;0.55;;;5.80;99.90;;;;;;4360549;32;20062;-80
2023/12/20 08:34:04;;;;;;;0.30;0.30;;;5.90;99.90;;;;;;4356767;32;20073;-80
2023/12/20 08:36:30;;;;;;;0.40;0.40;;;5.90;99.90;;;;;;4356093;32;20093;-80
2023/12/20 08:38:55;;;;;;;0.30;0.30;;;5.90;99.90;;;;;;4352380;32;20133;-79
2023/12/20 08:41:21;;;;;;;0.50;0.50;;;5.90;99.90;;;;;;4351543;32;20589;-80
2023/12/20 08:43:47;;;;;;;23.65;3.80;;;6.00;99.90;;;;;;4361494;32;20629;-80
2023/12/20 08:46:15;;;;;;;0.60;0.60;;;6.00;99.90;;;;;;4363485;32;20114;-81
2023/12/20 08:48:41;;;;;;;1.33;1.05;;;6.10;99.90;;;;;;4343170;32;20141;-79
2023/12/20 08:51:08;;;;;;;0.30;0.30;;;6.20;99.90;;;;;;4354355;32;20086;-77
2023/12/20 08:53:34;;;;;;;7.22;1.15;;;6.10;99.90;;;;;;4347224;32;20423;-79
2023/12/20 08:56:01;;;;;;;15.00;0.77;;;6.10;99.90;;;;;;4361684;32;20105;-79
2023/12/20 08:58:27;;;;;;;0.30;0.30;;;6.10;99.90;;;;;;4354679;32;20462;-79
2023/12/20 09:00:55;;;;;;;7.05;0.50;;;6.10;99.90;;;;;;4358396;32;21103;-79
2023/12/20 09:03:21;;;;;;;1.15;0.95;;;6.20;99.90;;;;;;4361586;32;20087;-78
2023/12/20 09:05:46;;;;;;;2.33;1.15;;;6.10;99.90;;;;;;4360836;32;20102;-78
2023/12/20 09:08:12;;;;;;;0.30;0.30;;;6.20;99.90;;;;;;4351281;32;20086;-78
2023/12/20 09:10:38;;;;;;;0.75;0.60;;;6.20;99.90;;;;;;4361848;32;20731;-78
2023/12/20 09:13:04;;;;;;;0.40;0.40;;;6.30;99.90;;;;;;4352029;32;20091;-78
2023/12/20 09:15:30;;;;;;;1.60;0.82;;;6.30;99.90;;;;;;4357492;32;20483;-78
2023/12/20 09:17:55;;;;;;;1.20;0.88;;;6.30;99.90;;;;;;4362975;32;20078;-78
2023/12/20 09:20:23;;;;;;;0.30;0.30;;;6.30;99.90;;;;;;4362052;32;20098;-78
2023/12/20 09:22:50;;;;;;;0.30;0.30;;;6.30;99.90;;;;;;4363563;32;20233;-79
2023/12/20 09:25:17;;;;;;;0.30;0.30;;;6.30;99.90;;;;;;4358293;32;20090;-78
2023/12/20 09:27:43;;;;;;;2.75;1.50;;;6.30;99.90;;;;;;4365955;32;20074;-80
2023/12/20 09:30:09;;;;;;;0.40;0.40;;;6.30;99.90;;;;;;4365271;32;20082;-80
2023/12/20 09:32:35;;;;;;;0.32;0.32;;;6.30;99.90;;;;;;4362290;32;20154;-79
2023/12/20 09:35:01;;;;;;;0.30;0.30;;;6.40;99.90;;;;;;4366603;32;20082;-79
2023/12/20 09:37:27;;;;;;;0.32;0.32;;;6.40;99.90;;;;;;4362499;32;20086;-79
2023/12/20 09:39:53;;;;;;;2.65;0.90;;;6.40;99.90;;;;;;4353808;32;20145;-80
2023/12/20 09:42:29;;;;;;;0.85;0.85;;;6.40;99.90;;;;;;4359743;32;20067;-79
2023/12/20 09:44:56;;;;;;;0.30;0.30;;;6.40;99.90;;;;;;4364412;32;20455;-79
2023/12/20 09:47:24;;;;;;;0.30;0.30;;;6.40;99.90;;;;;;4364773;32;22112;-80
2023/12/20 09:49:51;;;;;;;0.30;0.30;;;6.40;99.90;;;;;;4362613;32;20139;-80
2023/12/20 09:52:18;;;;;;;16.05;1.33;;;6.40;99.90;;;;;;4367776;32;20193;-79
2023/12/20 09:54:45;;;;;;;0.30;0.30;;;6.40;99.90;;;;;;4365072;32;20104;-76
2023/12/20 09:57:10;;;;;;;1.77;0.75;;;6.50;99.90;;;;;;4366006;32;20717;-78
2023/12/20 09:59:36;;;;;;;0.75;0.75;;;6.50;99.90;;;;;;4367695;32;20074;-79
2023/12/20 10:02:07;;;;;;;1.02;0.57;;;6.50;99.90;;;;;;4362349;32;20360;-79
2023/12/20 10:04:32;;;;;;;;;;;6.50;99.90;;;;;;4354418;32;20094;-75
2023/12/20 10:07:03;;;;;;;0.30;0.30;;;6.60;99.90;;;;;;4359482;32;19992;-79
2023/12/20 10:09:34;;;;;;;1.52;1.05;;;6.60;99.90;;;;;;4360856;32;20577;-77
2023/12/20 10:12:00;;;;;;;1.05;1.00;;;6.70;99.90;;;;;;4350575;32;20961;-79
2023/12/20 10:14:25;;;;;;;0.47;0.47;;;6.70;99.90;;;;;;4347739;32;20738;-77
2023/12/20 10:16:51;;;;;;;1.40;0.68;;;6.70;99.90;;;;;;4344114;32;20107;-80
2023/12/20 10:19:18;;;;;;;2.47;0.65;;;6.70;99.90;;;;;;4339740;32;20102;-77
2023/12/20 10:21:44;;;;;;;0.40;0.40;;;6.70;99.90;;;;;;4343305;32;20090;-78
2023/12/20 10:24:17;;;;;;;0.30;0.30;;;6.70;99.90;;;;;;4338818;32;20152;-81
2023/12/20 10:26:43;;;;;;;0.47;0.43;;;6.70;99.90;;;;;;4335797;32;20123;-78
2023/12/20 10:29:10;;;;;;;0.30;0.30;;;6.70;99.90;;;;;;4340970;32;20288;-80
2023/12/20 10:31:42;;;;;;;0.68;0.68;;;6.70;99.90;;;;;;4338780;32;20123;-78
2023/12/20 10:34:10;;;;;;;0.40;0.40;;;6.80;99.90;;;;;;4347617;32;21032;-80
2023/12/20 10:36:37;;;;;;;0.32;0.32;;;6.80;99.90;;;;;;4337586;32;25372;-79
2023/12/20 10:39:06;;;;;;;0.30;0.30;;;6.80;99.90;;;;;;4345500;32;21664;-79
2023/12/20 10:41:40;;;;;;;1.87;1.23;;;6.80;99.90;;;;;;4346643;32;20156;-77
2023/12/20 10:44:06;;;;;;;0.50;0.50;;;6.80;99.90;;;;;;4341478;32;25470;-79
2023/12/20 10:46:33;;;;;;;0.40;0.40;;;6.90;99.90;;;;;;4341754;32;20582;-79
2023/12/20 10:49:01;;;;;;;4.78;1.35;;;6.90;99.90;;;;;;4344241;32;20098;-79
2023/12/20 10:51:29;;;;;;;12.73;1.27;;;6.90;99.90;;;;;;4339494;32;20087;-78
2023/12/20 10:53:56;;;;;;;3.10;1.20;;;7.00;99.90;;;;;;4335216;32;21462;-78
2023/12/20 10:56:23;;;;;;;4.55;0.45;;;6.90;99.90;;;;;;4344729;32;20086;-79
2023/12/20 10:58:50;;;;;;;2.92;1.25;;;7.00;99.90;;;;;;4346208;32;20236;-78
2023/12/20 11:01:18;;;;;;;0.68;0.50;;;7.00;99.90;;;;;;4333608;32;20464;-78
2023/12/20 11:03:54;;;;;;;0.52;0.52;;;6.90;99.90;;;;;;4340786;32;20094;-78
2023/12/20 11:06:27;;;;;;;0.77;0.77;;;7.00;99.90;;;;;;4339260;32;20091;-77
2023/12/20 11:09:09;;;;;;;0.30;0.30;;;7.00;99.90;;;;;;4335559;32;20110;-79
2023/12/20 11:11:47;;;;;;;0.30;0.30;;;7.00;99.90;;;;;;4348612;32;20089;-77
2023/12/20 11:14:20;;;;;;;1.55;0.77;;;7.00;99.90;;;;;;4360304;32;20094;-80
2023/12/20 11:16:46;;;;;;;0.30;0.30;;;7.00;99.90;;;;;;4350960;32;20091;-78
2023/12/20 11:19:13;;;;;;;2.58;1.23;;;6.90;99.90;;;;;;4355970;32;20074;-79
2023/12/20 11:21:40;;;;;;;0.40;0.40;;;7.00;99.90;;;;;;4366952;32;20086;-79
2023/12/20 11:24:07;;;;;;;1.17;1.08;;;7.00;99.90;;;;;;4365957;32;20106;-78
2023/12/20 11:26:36;;;;;;;0.73;0.73;;;7.00;99.90;;;;;;4376001;32;20145;-82
2023/12/20 11:29:39;;;;;;;3.03;1.15;;;7.00;99.90;;;;;;4373186;32;20094;-77
2023/12/20 11:32:27;;;;;;;0.43;0.43;;;6.90;99.90;;;;;;4362959;32;20407;-77
2023/12/20 11:34:58;;;;;;;1.23;1.15;;;6.90;99.90;;;;;;4347821;32;20530;-78
2023/12/20 11:37:31;;;;;;;;;;;6.90;99.90;;;;;;4364282;32;20075;-78
2023/12/20 11:40:03;;;;;;;0.85;0.85;;;6.80;99.90;;;;;;4362969;32;20150;-79
2023/12/20 11:42:34;;;;;;;5.40;2.10;;;6.80;99.90;;;;;;4368769;32;20102;-78
2023/12/20 11:45:03;;;;;;;0.40;0.40;;;6.80;99.90;;;;;;4361031;32;20735;-79
2023/12/20 11:47:31;;;;;;;0.30;0.30;;;6.80;99.90;;;;;;4364569;32;20097;-79
2023/12/20 11:49:56;;;;;;;0.35;0.35;;;6.90;99.90;;;;;;4360501;32;137395;-78
2023/12/20 11:52:22;;;;;;;0.40;0.40;;;6.90;99.90;;;;;;4352477;32;20611;-79
2023/12/20 11:54:47;;;;;;;0.30;0.30;;;6.90;99.90;;;;;;4365589;32;20069;-78
2023/12/20 11:57:13;;;;;;;1.52;0.60;;;6.80;99.90;;;;;;4361301;32;20098;-79
2023/12/20 11:59:43;;;;;;;1.05;0.88;;;6.80;99.90;;;;;;4350644;32;20414;-78
2023/12/20 12:02:12;;;;;;;0.43;0.43;;;6.80;99.90;;;;;;4352578;32;20561;-77
2023/12/20 12:04:37;;;;;;;0.35;0.35;;;6.80;99.90;;;;;;4354511;32;20098;-77
2023/12/20 12:07:03;;;;;;;25.62;0.95;;;6.80;99.90;;;;;;4353963;32;20224;-78
2023/12/20 12:09:29;;;;;;;0.30;0.30;;;6.90;99.90;;;;;;4351989;32;20134;-80
2023/12/20 12:11:55;;;;;;;0.30;0.30;;;6.90;99.90;;;;;;4358759;32;21006;-76
2023/12/20 12:14:20;;;;;;;0.40;0.40;;;7.00;99.90;;;;;;4357117;32;20149;-78
2023/12/20 12:16:46;;;;;;;0.80;0.68;;;6.90;99.90;;;;;;4360896;32;20078;-77
2023/12/20 12:19:21;;;;;;;29.50;1.08;;;7.00;99.90;;;;;;4357551;32;20098;-80
2023/12/20 12:21:47;;;;;;;1.30;1.20;;;7.00;99.90;;;;;;4360239;32;20402;-78
2023/12/20 12:24:13;;;;;;;0.45;0.45;;;7.00;99.90;;;;;;4365242;32;20621;-76
2023/12/20 12:26:38;;;;;;;0.30;0.30;;;7.00;99.90;;;;;;4362215;32;20492;-78
2023/12/20 12:29:07;;;;;;;0.57;0.57;;;7.00;99.90;;;;;;4362775;32;20629;-78
2023/12/20 12:31:33;;;;;;;0.40;0.40;;;7.00;99.90;;;;;;4356509;32;20098;-77
2023/12/20 12:33:58;;;;;;;0.40;0.40;;;7.00;99.90;;;;;;4356938;32;20106;-76
2023/12/20 12:36:25;;;;;;;0.40;0.40;;;6.90;99.90;;;;;;4368470;32;20094;-76
2023/12/20 12:38:51;;;;;;;0.32;0.32;;;6.90;99.90;;;;;;4359531;32;20297;-77
2023/12/20 12:41:17;;;;;;;0.40;0.40;;;6.90;99.90;;;;;;4363165;32;20075;-79
2023/12/20 12:43:43;;;;;;;0.40;0.40;;;6.80;99.90;;;;;;4363024;32;20086;-79
2023/12/20 12:46:08;;;;;;;1.10;0.95;;;6.70;99.90;;;;;;4358277;32;20091;-79
2023/12/20 12:48:34;;;;;;;1.00;0.55;;;6.70;99.90;;;;;;4359134;32;20074;-79
2023/12/20 12:51:00;;;;;;;0.45;0.45;;;6.70;99.90;;;;;;4361888;32;20315;-79
2023/12/20 12:53:27;;;;;;;0.30;0.30;;;6.70;99.90;;;;;;4360549;32;20278;-78